LYSM weather

Veliki Radinci Airfield
Sremska Mitrovica, Srem, Serbia

Public forecast

Using degrees Celsius for public forecast. Weather courtesy of forecast.io.

METAR (pilot weather report)

Closest report is Batajnica Air Base, 26.1 nm (48.3 km) ESE. Retrieved 2019/06/20 08:30 UTC (28 minutes ago):

LYBT 200830Z VRB01KT CAVOK 25/20 Q1013 NOSIG

TAF (pilot weather forecast)

Closest forecast is Batajnica Air Base, 26.1 nm (48.3 km) ESE. Retrieved 2019/06/20 06:00 UTC (3 hours ago):

TAF LYBT 200500Z 2006/2106 20006KT 9999 SCT033 TX30/2014Z TN17/2103Z PROB40 TEMPO 2012/2018 3000 TSRA SCT027CB BKN033 TEMPO 2100/2103 3000 BR